sensor_id;sensor_type;location;lat;lon;timestamp;pressure;altitude;pressure_sealevel;temperature;humidity
7337;BME280;54510;42.016;23.098;2023-02-10T00:01:31;-21068.72;;;-2.34;61.36
7337;BME280;54510;42.016;23.098;2023-02-10T00:03:57;-21068.88;;;-2.34;61.37
7337;BME280;54510;42.016;23.098;2023-02-10T00:06:24;-21068.44;;;-2.35;61.36
7337;BME280;54510;42.016;23.098;2023-02-10T00:08:52;-21067.19;;;-2.40;61.86
7337;BME280;54510;42.016;23.098;2023-02-10T00:11:18;-21065.63;;;-2.46;61.78
7337;BME280;54510;42.016;23.098;2023-02-10T00:13:44;-21060.97;;;-2.62;62.11
7337;BME280;54510;42.016;23.098;2023-02-10T00:16:13;-21063.09;;;-2.55;62.69
7337;BME280;54510;42.016;23.098;2023-02-10T00:18:39;-21062.53;;;-2.57;62.96
7337;BME280;54510;42.016;23.098;2023-02-10T00:21:13;-21060.56;;;-2.64;62.94
7337;BME280;54510;42.016;23.098;2023-02-10T00:23:40;-21062.25;;;-2.58;62.48
7337;BME280;54510;42.016;23.098;2023-02-10T00:26:06;-21060.56;;;-2.64;62.30
7337;BME280;54510;42.016;23.098;2023-02-10T00:28:33;-21058.88;;;-2.70;62.72
7337;BME280;54510;42.016;23.098;2023-02-10T00:30:59;-21055.50;;;-2.82;62.53
7337;BME280;54510;42.016;23.098;2023-02-10T00:33:29;-21055.22;;;-2.83;63.04
7337;BME280;54510;42.016;23.098;2023-02-10T00:35:54;-21054.94;;;-2.84;62.98
7337;BME280;54510;42.016;23.098;2023-02-10T00:38:20;-21054.09;;;-2.87;62.78
7337;BME280;54510;42.016;23.098;2023-02-10T00:40:45;-21053.66;;;-2.89;63.04
7337;BME280;54510;42.016;23.098;2023-02-10T00:43:11;-21052.94;;;-2.91;63.10
7337;BME280;54510;42.016;23.098;2023-02-10T00:45:36;-21052.53;;;-2.93;62.79
7337;BME280;54510;42.016;23.098;2023-02-10T00:48:01;-21054.34;;;-2.86;63.08
7337;BME280;54510;42.016;23.098;2023-02-10T00:50:27;-21054.09;;;-2.87;62.94
7337;BME280;54510;42.016;23.098;2023-02-10T00:52:52;-21052.53;;;-2.93;62.95
7337;BME280;54510;42.016;23.098;2023-02-10T00:55:17;-21048.88;;;-3.06;63.62
7337;BME280;54510;42.016;23.098;2023-02-10T00:57:43;-21050.84;;;-2.99;63.34
7337;BME280;54510;42.016;23.098;2023-02-10T01:00:09;-21050.41;;;-3.00;63.09
7337;BME280;54510;42.016;23.098;2023-02-10T01:02:34;-21050.84;;;-2.99;63.25
7337;BME280;54510;42.016;23.098;2023-02-10T01:05:00;-21052.66;;;-2.92;63.27
7337;BME280;54510;42.016;23.098;2023-02-10T01:07:25;-21051.41;;;-2.97;63.48
7337;BME280;54510;42.016;23.098;2023-02-10T01:09:50;-21052.09;;;-2.94;63.27
7337;BME280;54510;42.016;23.098;2023-02-10T01:12:16;-21050.97;;;-2.98;63.58
7337;BME280;54510;42.016;23.098;2023-02-10T01:14:41;-21045.78;;;-3.17;63.87
7337;BME280;54510;42.016;23.098;2023-02-10T01:17:07;-21048.59;;;-3.07;63.72
7337;BME280;54510;42.016;23.098;2023-02-10T01:19:32;-21045.91;;;-3.16;63.37
7337;BME280;54510;42.016;23.098;2023-02-10T01:21:58;-21046.63;;;-3.14;63.75
7337;BME280;54510;42.016;23.098;2023-02-10T01:24:23;-21043.66;;;-3.25;64.00
7337;BME280;54510;42.016;23.098;2023-02-10T01:26:48;-21048.31;;;-3.08;64.05
7337;BME280;54510;42.016;23.098;2023-02-10T01:29:14;-21046.06;;;-3.16;64.15
7337;BME280;54510;42.016;23.098;2023-02-10T01:31:40;-21045.78;;;-3.17;64.17
7337;BME280;54510;42.016;23.098;2023-02-10T01:34:05;-21044.09;;;-3.23;64.17
7337;BME280;54510;42.016;23.098;2023-02-10T01:36:30;-21043.22;;;-3.26;64.17
7337;BME280;54510;42.016;23.098;2023-02-10T01:38:56;-21043.22;;;-3.26;64.06
7337;BME280;54510;42.016;23.098;2023-02-10T01:41:23;-21045.50;;;-3.18;63.84
7337;BME280;54510;42.016;23.098;2023-02-10T01:46:28;-21046.19;;;-3.15;63.29
7337;BME280;54510;42.016;23.098;2023-02-10T01:48:56;-21047.03;;;-3.12;63.32
7337;BME280;54510;42.016;23.098;2023-02-10T01:51:33;-21046.06;;;-3.16;63.38
7337;BME280;54510;42.016;23.098;2023-02-10T01:54:02;-21043.22;;;-3.26;63.37
7337;BME280;54510;42.016;23.098;2023-02-10T01:56:28;-21042.09;;;-3.30;63.90
7337;BME280;54510;42.016;23.098;2023-02-10T01:58:54;-21045.63;;;-3.17;64.17
7337;BME280;54510;42.016;23.098;2023-02-10T02:01:19;-21045.06;;;-3.20;63.67
7337;BME280;54510;42.016;23.098;2023-02-10T02:03:45;-21041.53;;;-3.32;64.18
7337;BME280;54510;42.016;23.098;2023-02-10T02:06:11;-21044.38;;;-3.22;64.82
7337;BME280;54510;42.016;23.098;2023-02-10T02:08:37;-21040.28;;;-3.37;64.85
7337;BME280;54510;42.016;23.098;2023-02-10T02:11:14;-21041.81;;;-3.31;64.58
7337;BME280;54510;42.016;23.098;2023-02-10T02:19:06;-21043.81;;;-3.24;64.51
7337;BME280;54510;42.016;23.098;2023-02-10T02:24:48;-21037.03;;;-3.48;65.07
7337;BME280;54510;42.016;23.098;2023-02-10T02:33:24;-21038.16;;;-3.44;64.77
7337;BME280;54510;42.016;23.098;2023-02-10T02:36:20;-21039.84;;;-3.38;64.42
7337;BME280;54510;42.016;23.098;2023-02-10T02:38:48;-21040.69;;;-3.35;64.54
7337;BME280;54510;42.016;23.098;2023-02-10T02:41:22;-21040.97;;;-3.34;64.31
7337;BME280;54510;42.016;23.098;2023-02-10T02:43:48;-21040.97;;;-3.34;63.91
7337;BME280;54510;42.016;23.098;2023-02-10T02:46:44;-21038.16;;;-3.44;64.56
7337;BME280;54510;42.016;23.098;2023-02-10T02:52:28;-21038.16;;;-3.44;64.37
7337;BME280;54510;42.016;23.098;2023-02-10T02:55:05;-21037.19;;;-3.48;64.31
7337;BME280;54510;42.016;23.098;2023-02-10T02:57:55;-21035.06;;;-3.55;63.98
7337;BME280;54510;42.016;23.098;2023-02-10T03:00:26;-21032.66;;;-3.64;64.65
7337;BME280;54510;42.016;23.098;2023-02-10T03:02:53;-21030.00;;;-3.74;65.05
7337;BME280;54510;42.016;23.098;2023-02-10T03:05:21;-21033.94;;;-3.60;65.36
7337;BME280;54510;42.016;23.098;2023-02-10T03:07:47;-21026.59;;;-3.86;65.49
7337;BME280;54510;42.016;23.098;2023-02-10T03:10:13;-21031.69;;;-3.68;65.73
7337;BME280;54510;42.016;23.098;2023-02-10T03:12:38;-21031.81;;;-3.67;64.99
7337;BME280;54510;42.016;23.098;2023-02-10T03:15:04;-21032.25;;;-3.66;64.86
7337;BME280;54510;42.016;23.098;2023-02-10T03:17:29;-21026.88;;;-3.85;64.62
7337;BME280;54510;42.016;23.098;2023-02-10T03:19:55;-21028.59;;;-3.79;65.00
7337;BME280;54510;42.016;23.098;2023-02-10T03:22:20;-21029.84;;;-3.74;64.59
7337;BME280;54510;42.016;23.098;2023-02-10T03:24:45;-21031.69;;;-3.68;64.52
7337;BME280;54510;42.016;23.098;2023-02-10T03:27:11;-21029.84;;;-3.74;64.27
7337;BME280;54510;42.016;23.098;2023-02-10T03:29:36;-21021.09;;;-4.06;65.07
7337;BME280;54510;42.016;23.098;2023-02-10T03:32:02;-21019.00;;;-4.13;65.06
7337;BME280;54510;42.016;23.098;2023-02-10T03:34:28;-21012.78;;;-4.35;65.85
7337;BME280;54510;42.016;23.098;2023-02-10T03:36:54;-21020.13;;;-4.09;66.55
7337;BME280;54510;42.016;23.098;2023-02-10T03:39:19;-21022.66;;;-4.00;66.04
7337;BME280;54510;42.016;23.098;2023-02-10T03:41:45;-21022.22;;;-4.02;65.89
7337;BME280;54510;42.016;23.098;2023-02-10T03:44:10;-21025.19;;;-3.91;65.71
7337;BME280;54510;42.016;23.098;2023-02-10T03:46:35;-21020.97;;;-4.06;66.11
7337;BME280;54510;42.016;23.098;2023-02-10T03:49:03;-21022.09;;;-4.02;66.56
7337;BME280;54510;42.016;23.098;2023-02-10T03:51:28;-21021.53;;;-4.04;65.90
7337;BME280;54510;42.016;23.098;2023-02-10T03:53:54;-21017.88;;;-4.17;66.10
7337;BME280;54510;42.016;23.098;2023-02-10T03:56:19;-21020.97;;;-4.06;66.54
7337;BME280;54510;42.016;23.098;2023-02-10T03:58:45;-21019.28;;;-4.12;66.46
7337;BME280;54510;42.016;23.098;2023-02-10T04:01:13;-21015.19;;;-4.27;65.95
7337;BME280;54510;42.016;23.098;2023-02-10T04:03:39;-21022.09;;;-4.02;66.35
7337;BME280;54510;42.016;23.098;2023-02-10T04:06:05;-21020.41;;;-4.08;66.07
7337;BME280;54510;42.016;23.098;2023-02-10T04:08:31;-21021.53;;;-4.04;65.98
7337;BME280;54510;42.016;23.098;2023-02-10T04:10:56;-21019.28;;;-4.12;65.53
7337;BME280;54510;42.016;23.098;2023-02-10T04:13:22;-21017.03;;;-4.20;66.38
7337;BME280;54510;42.016;23.098;2023-02-10T04:15:47;-21018.72;;;-4.14;66.27
7337;BME280;54510;42.016;23.098;2023-02-10T04:18:13;-21019.84;;;-4.10;66.44
7337;BME280;54510;42.016;23.098;2023-02-10T04:20:38;-21020.69;;;-4.07;66.12
7337;BME280;54510;42.016;23.098;2023-02-10T04:23:04;-21022.38;;;-4.01;65.77
7337;BME280;54510;42.016;23.098;2023-02-10T04:25:30;-21016.59;;;-4.22;65.31
7337;BME280;54510;42.016;23.098;2023-02-10T04:27:56;-21018.00;;;-4.17;65.50
7337;BME280;54510;42.016;23.098;2023-02-10T04:30:21;-21016.44;;;-4.22;65.68
7337;BME280;54510;42.016;23.098;2023-02-10T04:32:47;-21011.53;;;-4.40;65.50
7337;BME280;54510;42.016;23.098;2023-02-10T04:35:12;-21010.97;;;-4.42;66.68
7337;BME280;54510;42.016;23.098;2023-02-10T04:37:37;-21013.63;;;-4.32;66.50
7337;BME280;54510;42.016;23.098;2023-02-10T04:40:03;-21013.78;;;-4.32;66.24
7337;BME280;54510;42.016;23.098;2023-02-10T04:42:29;-21013.22;;;-4.34;66.77
7337;BME280;54510;42.016;23.098;2023-02-10T04:44:58;-21012.50;;;-4.37;66.48
7337;BME280;54510;42.016;23.098;2023-02-10T04:47:25;-21010.53;;;-4.44;66.51
7337;BME280;54510;42.016;23.098;2023-02-10T04:49:51;-21011.66;;;-4.40;66.47
7337;BME280;54510;42.016;23.098;2023-02-10T04:52:16;-21011.38;;;-4.41;66.39
7337;BME280;54510;42.016;23.098;2023-02-10T04:54:42;-21009.41;;;-4.48;66.15
7337;BME280;54510;42.016;23.098;2023-02-10T04:57:07;-21006.88;;;-4.57;67.10
7337;BME280;54510;42.016;23.098;2023-02-10T04:59:32;-21006.03;;;-4.60;67.03
7337;BME280;54510;42.016;23.098;2023-02-10T05:01:58;-21011.09;;;-4.42;67.22
7337;BME280;54510;42.016;23.098;2023-02-10T05:04:23;-21013.50;;;-4.33;66.26
7337;BME280;54510;42.016;23.098;2023-02-10T05:06:49;-21014.91;;;-4.28;66.23
7337;BME280;54510;42.016;23.098;2023-02-10T05:09:14;-21008.56;;;-4.51;66.51
7337;BME280;54510;42.016;23.098;2023-02-10T05:11:39;-21004.31;;;-4.66;66.56
7337;BME280;54510;42.016;23.098;2023-02-10T05:14:06;-21005.59;;;-4.61;66.46
7337;BME280;54510;42.016;23.098;2023-02-10T05:16:32;-21003.75;;;-4.68;66.34
7337;BME280;54510;42.016;23.098;2023-02-10T05:18:57;-20997.00;;;-4.92;67.25
7337;BME280;54510;42.016;23.098;2023-02-10T05:21:23;-20997.56;;;-4.90;67.42
7337;BME280;54510;42.016;23.098;2023-02-10T05:23:48;-20994.16;;;-5.02;68.31
7337;BME280;54510;42.016;23.098;2023-02-10T05:26:13;-20994.72;;;-5.00;68.84
7337;BME280;54510;42.016;23.098;2023-02-10T05:28:39;-20992.19;;;-5.09;68.78
7337;BME280;54510;42.016;23.098;2023-02-10T05:31:04;-20997.28;;;-4.91;68.61
7337;BME280;54510;42.016;23.098;2023-02-10T05:33:32;-21002.91;;;-4.71;68.15
7337;BME280;54510;42.016;23.098;2023-02-10T05:35:58;-21003.75;;;-4.68;68.11
7337;BME280;54510;42.016;23.098;2023-02-10T05:38:23;-21007.00;;;-4.56;67.07
7337;BME280;54510;42.016;23.098;2023-02-10T05:40:49;-21003.34;;;-4.69;65.88
7337;BME280;54510;42.016;23.098;2023-02-10T05:43:14;-21006.88;;;-4.57;65.91
7337;BME280;54510;42.016;23.098;2023-02-10T05:45:40;-21004.31;;;-4.66;65.64
7337;BME280;54510;42.016;23.098;2023-02-10T05:48:07;-21001.50;;;-4.76;66.28
7337;BME280;54510;42.016;23.098;2023-02-10T05:50:33;-20997.56;;;-4.90;66.47
7337;BME280;54510;42.016;23.098;2023-02-10T05:52:59;-21000.09;;;-4.81;66.47
7337;BME280;54510;42.016;23.098;2023-02-10T05:55:24;-21000.09;;;-4.81;66.59
7337;BME280;54510;42.016;23.098;2023-02-10T05:57:51;-21004.03;;;-4.67;66.74
7337;BME280;54510;42.016;23.098;2023-02-10T06:00:17;-21001.22;;;-4.77;66.08
7337;BME280;54510;42.016;23.098;2023-02-10T06:02:43;-21006.72;;;-4.57;65.77
7337;BME280;54510;42.016;23.098;2023-02-10T06:05:08;-21008.84;;;-4.50;65.61
7337;BME280;54510;42.016;23.098;2023-02-10T06:07:34;-21016.19;;;-4.23;65.65
7337;BME280;54510;42.016;23.098;2023-02-10T06:09:59;-21015.31;;;-4.26;64.72
7337;BME280;54510;42.016;23.098;2023-02-10T06:12:25;-21012.50;;;-4.37;64.62
7337;BME280;54510;42.016;23.098;2023-02-10T06:14:50;-21011.53;;;-4.40;64.74
7337;BME280;54510;42.016;23.098;2023-02-10T06:17:15;-21015.75;;;-4.25;64.30
7337;BME280;54510;42.016;23.098;2023-02-10T06:19:41;-21015.19;;;-4.27;64.47
7337;BME280;54510;42.016;23.098;2023-02-10T06:22:08;-21016.88;;;-4.21;64.59
7337;BME280;54510;42.016;23.098;2023-02-10T06:24:34;-21021.09;;;-4.06;64.31
7337;BME280;54510;42.016;23.098;2023-02-10T06:27:00;-21024.06;;;-3.95;64.22
7337;BME280;54510;42.016;23.098;2023-02-10T06:29:25;-21027.72;;;-3.82;64.17
7337;BME280;54510;42.016;23.098;2023-02-10T06:31:51;-21030.97;;;-3.70;63.57
7337;BME280;54510;42.016;23.098;2023-02-10T06:34:16;-21030.97;;;-3.70;63.15
7337;BME280;54510;42.016;23.098;2023-02-10T06:36:42;-21033.22;;;-3.62;62.70
7337;BME280;54510;42.016;23.098;2023-02-10T06:39:07;-21035.91;;;-3.52;62.79
7337;BME280;54510;42.016;23.098;2023-02-10T06:41:33;-21038.88;;;-3.42;62.37
7337;BME280;54510;42.016;23.098;2023-02-10T06:43:59;-21039.56;;;-3.39;62.71
7337;BME280;54510;42.016;23.098;2023-02-10T06:46:25;-21048.59;;;-3.07;61.98
7337;BME280;54510;42.016;23.098;2023-02-10T06:48:51;-21045.34;;;-3.19;61.39
7337;BME280;54510;42.016;23.098;2023-02-10T06:51:17;-21049.00;;;-3.05;60.71
7337;BME280;54510;42.016;23.098;2023-02-10T06:53:42;-21049.84;;;-3.02;60.56
7337;BME280;54510;42.016;23.098;2023-02-10T06:56:08;-21052.94;;;-2.91;60.74
7337;BME280;54510;42.016;23.098;2023-02-10T06:58:34;-21056.75;;;-2.78;60.64
7337;BME280;54510;42.016;23.098;2023-02-10T07:01:00;-21051.69;;;-2.96;60.74
7337;BME280;54510;42.016;23.098;2023-02-10T07:03:26;-21051.69;;;-2.96;60.79
7337;BME280;54510;42.016;23.098;2023-02-10T07:05:52;-21050.13;;;-3.01;61.09
7337;BME280;54510;42.016;23.098;2023-02-10T07:08:17;-21049.72;;;-3.03;60.97
7337;BME280;54510;42.016;23.098;2023-02-10T07:10:43;-21044.78;;;-3.21;61.66
7337;BME280;54510;42.016;23.098;2023-02-10T07:13:09;-21042.69;;;-3.28;61.85
7337;BME280;54510;42.016;23.098;2023-02-10T07:15:35;-21045.63;;;-3.17;61.84
7337;BME280;54510;42.016;23.098;2023-02-10T07:18:01;-21050.56;;;-3.00;61.94
7337;BME280;54510;42.016;23.098;2023-02-10T07:20:26;-21047.19;;;-3.12;61.76
7337;BME280;54510;42.016;23.098;2023-02-10T07:22:52;-21045.63;;;-3.17;62.12
7337;BME280;54510;42.016;23.098;2023-02-10T07:25:18;-21050.56;;;-3.00;61.98
7337;BME280;54510;42.016;23.098;2023-02-10T07:27:43;-21055.22;;;-2.83;61.70
7337;BME280;54510;42.016;23.098;2023-02-10T07:30:10;-21057.75;;;-2.74;61.40
7337;BME280;54510;42.016;23.098;2023-02-10T07:32:36;-21060.84;;;-2.63;61.17
7337;BME280;54510;42.016;23.098;2023-02-10T07:35:01;-21062.66;;;-2.56;61.38
7337;BME280;54510;42.016;23.098;2023-02-10T07:37:27;-21066.47;;;-2.43;60.83
7337;BME280;54510;42.016;23.098;2023-02-10T07:39:52;-21067.88;;;-2.38;60.95
7337;BME280;54510;42.016;23.098;2023-02-10T07:42:18;-21068.72;;;-2.34;60.83
7337;BME280;54510;42.016;23.098;2023-02-10T07:44:43;-21071.41;;;-2.25;60.25
7337;BME280;54510;42.016;23.098;2023-02-10T07:47:10;-21079.28;;;-1.96;60.00
7337;BME280;54510;42.016;23.098;2023-02-10T07:49:35;-21081.25;;;-1.89;59.49
7337;BME280;54510;42.016;23.098;2023-02-10T07:52:01;-21081.09;;;-1.90;59.15
7337;BME280;54510;42.016;23.098;2023-02-10T07:54:26;-21080.69;;;-1.91;59.20
7337;BME280;54510;42.016;23.098;2023-02-10T07:56:52;-21081.38;;;-1.89;59.32
7337;BME280;54510;42.016;23.098;2023-02-10T07:59:17;-21089.25;;;-1.61;58.63
7337;BME280;54510;42.016;23.098;2023-02-10T08:01:43;-21089.97;;;-1.58;58.21
7337;BME280;54510;42.016;23.098;2023-02-10T08:04:09;-21091.09;;;-1.54;58.38
7337;BME280;54510;42.016;23.098;2023-02-10T08:06:35;-21087.72;;;-1.66;58.15
7337;BME280;54510;42.016;23.098;2023-02-10T08:09:00;-21090.13;;;-1.57;58.15
7337;BME280;54510;42.016;23.098;2023-02-10T08:11:25;-21097.00;;;-1.33;57.86
7337;BME280;54510;42.016;23.098;2023-02-10T08:13:51;-21100.38;;;-1.21;57.58
7337;BME280;54510;42.016;23.098;2023-02-10T08:16:16;-21105.84;;;-1.01;57.06
7337;BME280;54510;42.016;23.098;2023-02-10T08:18:42;-21104.03;;;-1.07;56.49
7337;BME280;54510;42.016;23.098;2023-02-10T08:21:07;-21102.63;;;-1.12;56.88
7337;BME280;54510;42.016;23.098;2023-02-10T08:23:33;-21107.41;;;-0.95;56.79
7337;BME280;54510;42.016;23.098;2023-02-10T08:26:10;-21111.63;;;-0.80;56.39
7337;BME280;54510;42.016;23.098;2023-02-10T08:28:37;-21111.34;;;-0.81;55.67
7337;BME280;54510;42.016;23.098;2023-02-10T08:31:07;-21110.91;;;-0.83;55.82
7337;BME280;54510;42.016;23.098;2023-02-10T08:33:34;-21116.25;;;-0.63;55.53
7337;BME280;54510;42.016;23.098;2023-02-10T08:36:08;-21119.78;;;-0.51;55.58
7337;BME280;54510;42.016;23.098;2023-02-10T08:38:34;-21124.81;;;-0.32;55.37
7337;BME280;54510;42.016;23.098;2023-02-10T08:41:00;-21126.66;;;-0.26;55.12
7337;BME280;54510;42.016;23.098;2023-02-10T08:43:26;-21128.91;;;-0.18;54.47
7337;BME280;54510;42.016;23.098;2023-02-10T08:45:55;-21130.72;;;-0.11;53.70
7337;BME280;54510;42.016;23.098;2023-02-10T08:48:20;-21132.00;;;-0.07;53.93
7337;BME280;54510;42.016;23.098;2023-02-10T08:50:45;-21137.47;;;0.13;53.31
7337;BME280;54510;42.016;23.098;2023-02-10T08:53:11;-21139.00;;;0.19;53.71
7337;BME280;54510;42.016;23.098;2023-02-10T08:55:36;-21136.78;;;0.11;54.09
7337;BME280;54510;42.016;23.098;2023-02-10T08:58:02;-21140.56;;;0.24;52.99
7337;BME280;54510;42.016;23.098;2023-02-10T09:00:28;-21134.66;;;0.03;53.13
7337;BME280;54510;42.016;23.098;2023-02-10T09:02:53;-21139.72;;;0.21;52.69
7337;BME280;54510;42.016;23.098;2023-02-10T09:05:19;-21142.81;;;0.32;53.03
7337;BME280;54510;42.016;23.098;2023-02-10T09:07:45;-21145.19;;;0.41;52.29
7337;BME280;54510;42.016;23.098;2023-02-10T09:10:11;-21143.78;;;0.36;52.98
7337;BME280;54510;42.016;23.098;2023-02-10T09:12:38;-21151.09;;;0.62;52.54
7337;BME280;54510;42.016;23.098;2023-02-10T09:15:04;-21155.44;;;0.78;52.25
7337;BME280;54510;42.016;23.098;2023-02-10T09:17:29;-21157.69;;;0.86;52.13
7337;BME280;54510;42.016;23.098;2023-02-10T09:19:55;-21162.31;;;1.03;52.01
7337;BME280;54510;42.016;23.098;2023-02-10T09:22:22;-21163.00;;;1.05;51.40
7337;BME280;54510;42.016;23.098;2023-02-10T09:24:49;-21168.47;;;1.25;51.53
7337;BME280;54510;42.016;23.098;2023-02-10T09:27:16;-21161.47;;;1.00;50.80
7337;BME280;54510;42.016;23.098;2023-02-10T09:29:41;-21163.00;;;1.05;51.03
7337;BME280;54510;42.016;23.098;2023-02-10T09:32:07;-21162.72;;;1.04;50.94
7337;BME280;54510;42.016;23.098;2023-02-10T09:34:32;-21167.50;;;1.22;51.36
7337;BME280;54510;42.016;23.098;2023-02-10T09:36:58;-21172.97;;;1.41;50.80
7337;BME280;54510;42.016;23.098;2023-02-10T09:39:26;-21178.16;;;1.60;50.71
7337;BME280;54510;42.016;23.098;2023-02-10T09:42:03;-21176.19;;;1.53;50.31
7337;BME280;54510;42.016;23.098;2023-02-10T09:44:34;-21182.78;;;1.77;49.96
7337;BME280;54510;42.016;23.098;2023-02-10T09:54:48;-21183.91;;;1.81;49.76
7337;BME280;54510;42.016;23.098;2023-02-10T09:57:27;-21165.25;;;1.13;50.14
7337;BME280;54510;42.016;23.098;2023-02-10T09:59:56;-21179.28;;;1.64;50.27
7337;BME280;54510;42.016;23.098;2023-02-10T10:02:47;-21191.06;;;2.07;49.22
7337;BME280;54510;42.016;23.098;2023-02-10T10:05:22;-21191.06;;;2.07;48.86
7337;BME280;54510;42.016;23.098;2023-02-10T10:07:50;-21191.75;;;2.09;48.58
7337;BME280;54510;42.016;23.098;2023-02-10T10:10:30;-21194.41;;;2.19;48.60
7337;BME280;54510;42.016;23.098;2023-02-10T10:12:57;-21194.13;;;2.18;48.57
7337;BME280;54510;42.016;23.098;2023-02-10T10:15:26;-21203.09;;;2.50;47.75
7337;BME280;54510;42.016;23.098;2023-02-10T10:18:48;-21206.47;;;2.62;47.91
7337;BME280;54510;42.016;23.098;2023-02-10T10:21:15;-21210.25;;;2.76;47.80
7337;BME280;54510;42.016;23.098;2023-02-10T10:27:06;-21213.47;;;2.88;46.95
7337;BME280;54510;42.016;23.098;2023-02-10T10:29:58;-21216.69;;;2.99;46.93
7337;BME280;54510;42.016;23.098;2023-02-10T10:32:41;-21220.34;;;3.12;46.59
7337;BME280;54510;42.016;23.098;2023-02-10T10:35:24;-21218.94;;;3.07;47.07
7337;BME280;54510;42.016;23.098;2023-02-10T10:37:52;-21213.06;;;2.86;46.27
7337;BME280;54510;42.016;23.098;2023-02-10T10:40:30;-21210.66;;;2.77;46.52
7337;BME280;54510;42.016;23.098;2023-02-10T10:42:58;-21214.16;;;2.90;46.94
7337;BME280;54510;42.016;23.098;2023-02-10T10:45:29;-21213.75;;;2.89;46.22
7337;BME280;54510;42.016;23.098;2023-02-10T10:48:03;-21218.50;;;3.06;46.37
7337;BME280;54510;42.016;23.098;2023-02-10T10:50:32;-21214.72;;;2.92;46.22
7337;BME280;54510;42.016;23.098;2023-02-10T10:52:57;-21222.00;;;3.18;46.66
7337;BME280;54510;42.016;23.098;2023-02-10T10:55:35;-21229.44;;;3.45;45.72
7337;BME280;54510;42.016;23.098;2023-02-10T10:58:23;-21231.66;;;3.53;45.51
7337;BME280;54510;42.016;23.098;2023-02-10T11:00:58;-21238.38;;;3.78;45.43
7337;BME280;54510;42.016;23.098;2023-02-10T11:03:24;-21233.63;;;3.61;44.86
7337;BME280;54510;42.016;23.098;2023-02-10T11:08:33;-21240.06;;;3.84;44.14
7337;BME280;54510;42.016;23.098;2023-02-10T11:11:01;-21243.41;;;3.96;44.22
7337;BME280;54510;42.016;23.098;2023-02-10T11:13:30;-21234.59;;;3.64;44.17
7337;BME280;54510;42.016;23.098;2023-02-10T11:16:12;-21247.19;;;4.10;44.47
7337;BME280;54510;42.016;23.098;2023-02-10T11:18:51;-21254.19;;;4.35;44.12
7337;BME280;54510;42.016;23.098;2023-02-10T11:21:17;-21255.72;;;4.41;43.73
7337;BME280;54510;42.016;23.098;2023-02-10T11:23:52;-21253.19;;;4.31;43.27
7337;BME280;54510;42.016;23.098;2023-02-10T11:26:23;-21252.22;;;4.28;43.95
7337;BME280;54510;42.016;23.098;2023-02-10T11:28:49;-21258.66;;;4.51;42.93
7337;BME280;54510;42.016;23.098;2023-02-10T11:31:25;-21255.59;;;4.40;43.76
7337;BME280;54510;42.016;23.098;2023-02-10T11:34:19;-21249.16;;;4.17;43.85
7337;BME280;54510;42.016;23.098;2023-02-10T11:36:45;-21257.13;;;4.46;43.53
7337;BME280;54510;42.016;23.098;2023-02-10T11:39:23;-21260.47;;;4.58;43.52
7337;BME280;54510;42.016;23.098;2023-02-10T11:41:50;-21267.31;;;4.83;43.22
7337;BME280;54510;42.016;23.098;2023-02-10T11:44:29;-21273.34;;;5.04;42.94
7337;BME280;54510;42.016;23.098;2023-02-10T11:47:01;-21271.38;;;4.97;42.16
7337;BME280;54510;42.016;23.098;2023-02-10T11:49:29;-21274.72;;;5.09;42.32
7337;BME280;54510;42.016;23.098;2023-02-10T11:52:00;-21269.28;;;4.90;41.92
7337;BME280;54510;42.016;23.098;2023-02-10T11:54:27;-21271.66;;;4.98;41.79
7337;BME280;54510;42.016;23.098;2023-02-10T12:05:53;-21279.47;;;5.27;41.06
7337;BME280;54510;42.016;23.098;2023-02-10T12:08:24;-21281.72;;;5.35;41.31
7337;BME280;54510;42.016;23.098;2023-02-10T12:11:05;-21285.75;;;5.49;40.85
7337;BME280;54510;42.016;23.098;2023-02-10T12:16:30;-21294.28;;;5.80;40.15
7337;BME280;54510;42.016;23.098;2023-02-10T12:19:03;-21298.75;;;5.97;40.30
7337;BME280;54510;42.016;23.098;2023-02-10T12:27:09;-21309.91;;;6.37;39.44
7337;BME280;54510;42.016;23.098;2023-02-10T12:40:31;-21323.72;;;6.87;37.96
7337;BME280;54510;42.016;23.098;2023-02-10T12:51:43;-21346.28;;;7.69;36.32
7337;BME280;54510;42.016;23.098;2023-02-10T12:54:34;-21350.88;;;7.86;36.36
7337;BME280;54510;42.016;23.098;2023-02-10T12:57:05;-21356.44;;;8.06;35.92
7337;BME280;54510;42.016;23.098;2023-02-10T12:59:45;-21356.72;;;8.07;35.66
7337;BME280;54510;42.016;23.098;2023-02-10T13:02:20;-21358.25;;;8.13;35.33
7337;BME280;54510;42.016;23.098;2023-02-10T13:04:55;-21366.06;;;8.41;34.88
7337;BME280;54510;42.016;23.098;2023-02-10T13:07:34;-21372.59;;;8.65;34.93
7337;BME280;54510;42.016;23.098;2023-02-10T13:13:10;-21375.94;;;8.77;34.75
7337;BME280;54510;42.016;23.098;2023-02-10T13:15:43;-21374.41;;;8.71;34.79
7337;BME280;54510;42.016;23.098;2023-02-10T13:18:20;-21376.38;;;8.79;34.58
7337;BME280;54510;42.016;23.098;2023-02-10T13:21:00;-21383.31;;;9.04;34.13
7337;BME280;54510;42.016;23.098;2023-02-10T13:29:29;-21409.59;;;10.00;32.31
7337;BME280;54510;42.016;23.098;2023-02-10T13:34:48;-21404.59;;;9.81;31.97
7337;BME280;54510;42.016;23.098;2023-02-10T13:37:40;-21401.25;;;9.69;32.42
7337;BME280;54510;42.016;23.098;2023-02-10T13:40:28;-21404.72;;;9.82;32.83
7337;BME280;54510;42.016;23.098;2023-02-10T13:42:56;-21416.25;;;10.24;32.04
7337;BME280;54510;42.016;23.098;2023-02-10T13:45:28;-21415.56;;;10.21;31.39
7337;BME280;54510;42.016;23.098;2023-02-10T13:47:58;-21416.41;;;10.24;31.69
7337;BME280;54510;42.016;23.098;2023-02-10T13:50:25;-21422.22;;;10.46;31.76
7337;BME280;54510;42.016;23.098;2023-02-10T13:52:57;-21423.47;;;10.50;31.40
7337;BME280;54510;42.016;23.098;2023-02-10T14:00:30;-21425.56;;;10.58;31.71
7337;BME280;54510;42.016;23.098;2023-02-10T14:05:56;-21421.53;;;10.43;29.42
7337;BME280;54510;42.016;23.098;2023-02-10T14:11:39;-21418.63;;;10.33;28.82
7337;BME280;54510;42.016;23.098;2023-02-10T14:13:59;-21422.66;;;10.47;30.31
7337;BME280;54510;42.016;23.098;2023-02-10T14:16:31;-21424.59;;;10.54;30.61
7337;BME280;54510;42.016;23.098;2023-02-10T14:19:05;-21423.88;;;10.52;30.33
7337;BME280;54510;42.016;23.098;2023-02-10T14:21:38;-21409.88;;;10.01;29.16
7337;BME280;54510;42.016;23.098;2023-02-10T14:24:12;-21413.34;;;10.13;29.71
7337;BME280;54510;42.016;23.098;2023-02-10T14:26:42;-21414.16;;;10.16;30.73
7337;BME280;54510;42.016;23.098;2023-02-10T14:29:13;-21418.19;;;10.31;30.21
7337;BME280;54510;42.016;23.098;2023-02-10T14:31:40;-21418.47;;;10.32;30.21
7337;BME280;54510;42.016;23.098;2023-02-10T14:39:24;-21425.69;;;10.58;30.27